sensor_id;sensor_type;location;lat;lon;timestamp;pressure;altitude;pressure_sealevel;temperature;humidity
48386;BME280;34644;47.964;7.982;2022-10-31T00:04:20;97086.00;;;20.42;69.33
48386;BME280;34644;47.964;7.982;2022-10-31T00:11:21;97080.13;;;20.40;69.29
48386;BME280;34644;47.964;7.982;2022-10-31T00:18:21;97086.56;;;20.39;69.30
48386;BME280;34644;47.964;7.982;2022-10-31T00:25:22;97091.41;;;20.37;69.35
48386;BME280;34644;47.964;7.982;2022-10-31T00:32:22;97080.69;;;20.37;69.26
48386;BME280;34644;47.964;7.982;2022-10-31T00:39:22;97083.38;;;20.37;69.35
48386;BME280;34644;47.964;7.982;2022-10-31T00:46:23;97088.47;;;20.33;69.19
48386;BME280;34644;47.964;7.982;2022-10-31T00:53:24;97081.56;;;20.32;69.15
48386;BME280;34644;47.964;7.982;2022-10-31T01:00:26;97076.19;;;20.32;69.23
48386;BME280;34644;47.964;7.982;2022-10-31T01:07:26;97071.91;;;20.31;69.16
48386;BME280;34644;47.964;7.982;2022-10-31T01:14:26;97072.69;;;20.32;69.19
48386;BME280;34644;47.964;7.982;2022-10-31T01:21:31;97066.06;;;20.29;69.21
48386;BME280;34644;47.964;7.982;2022-10-31T01:28:33;97074.09;;;20.29;69.19
48386;BME280;34644;47.964;7.982;2022-10-31T01:35:34;97065.25;;;20.29;69.33
48386;BME280;34644;47.964;7.982;2022-10-31T01:42:34;97060.47;;;20.25;69.07
48386;BME280;34644;47.964;7.982;2022-10-31T01:56:35;97053.53;;;20.24;69.03
48386;BME280;34644;47.964;7.982;2022-10-31T02:03:37;97050.03;;;20.24;69.12
48386;BME280;34644;47.964;7.982;2022-10-31T02:10:37;97047.34;;;20.24;69.12
48386;BME280;34644;47.964;7.982;2022-10-31T02:17:38;97044.97;;;20.22;69.12
48386;BME280;34644;47.964;7.982;2022-10-31T02:25:30;97037.25;;;20.21;69.33
48386;BME280;34644;47.964;7.982;2022-10-31T02:53:22;97022.06;;;20.16;69.29
48386;BME280;34644;47.964;7.982;2022-10-31T03:00:23;97019.38;;;20.16;69.28
48386;BME280;34644;47.964;7.982;2022-10-31T03:14:43;97008.13;;;20.14;69.13
48386;BME280;34644;47.964;7.982;2022-10-31T03:21:47;97009.25;;;20.13;69.39
48386;BME280;34644;47.964;7.982;2022-10-31T03:35:51;96999.91;;;20.11;69.46
48386;BME280;34644;47.964;7.982;2022-10-31T03:43:00;97004.47;;;20.10;69.39
48386;BME280;34644;47.964;7.982;2022-10-31T03:50:06;96996.72;;;20.09;69.17
48386;BME280;34644;47.964;7.982;2022-10-31T04:04:27;96985.19;;;20.08;69.19
48386;BME280;34644;47.964;7.982;2022-10-31T04:11:30;96991.94;;;20.05;69.46
48386;BME280;34644;47.964;7.982;2022-10-31T04:18:52;96982.31;;;20.04;69.40
48386;BME280;34644;47.964;7.982;2022-10-31T04:25:52;96979.63;;;20.04;69.20
48386;BME280;34644;47.964;7.982;2022-10-31T04:32:53;96980.69;;;20.03;69.42
48386;BME280;34644;47.964;7.982;2022-10-31T04:39:53;96979.91;;;20.03;69.44
48386;BME280;34644;47.964;7.982;2022-10-31T04:47:12;96975.63;;;20.02;69.54
48386;BME280;34644;47.964;7.982;2022-10-31T04:54:12;96970.28;;;20.02;69.24
48386;BME280;34644;47.964;7.982;2022-10-31T05:01:33;96961.75;;;20.00;69.33
48386;BME280;34644;47.964;7.982;2022-10-31T05:08:34;96966.31;;;19.99;69.45
48386;BME280;34644;47.964;7.982;2022-10-31T05:15:38;96962.84;;;19.99;69.40
48386;BME280;34644;47.964;7.982;2022-10-31T05:23:01;96955.13;;;19.97;69.06
48386;BME280;34644;47.964;7.982;2022-10-31T05:30:01;96965.81;;;19.97;69.30
48386;BME280;34644;47.964;7.982;2022-10-31T05:37:02;96958.06;;;19.96;69.45
48386;BME280;34644;47.964;7.982;2022-10-31T05:44:02;96954.09;;;19.93;69.23
48386;BME280;34644;47.964;7.982;2022-10-31T05:51:05;96958.66;;;19.93;69.20
48386;BME280;34644;47.964;7.982;2022-10-31T05:58:06;96951.41;;;19.93;69.34
48386;BME280;34644;47.964;7.982;2022-10-31T06:05:08;96953.28;;;19.93;69.39
48386;BME280;34644;47.964;7.982;2022-10-31T06:12:09;96959.72;;;19.92;69.22
48386;BME280;34644;47.964;7.982;2022-10-31T06:19:28;96955.44;;;19.91;69.30
48386;BME280;34644;47.964;7.982;2022-10-31T06:26:28;96959.72;;;19.92;69.38
48386;BME280;34644;47.964;7.982;2022-10-31T06:33:28;96951.97;;;19.90;69.19
48386;BME280;34644;47.964;7.982;2022-10-31T06:40:31;96951.19;;;19.90;69.18
48386;BME280;34644;47.964;7.982;2022-10-31T06:47:57;96956.25;;;19.91;69.16
48386;BME280;34644;47.964;7.982;2022-10-31T06:55:04;96960.78;;;19.91;69.06
48386;BME280;34644;47.964;7.982;2022-10-31T07:02:08;96962.69;;;19.90;69.10
48386;BME280;34644;47.964;7.982;2022-10-31T07:09:08;96953.59;;;19.91;69.00
48386;BME280;34644;47.964;7.982;2022-10-31T07:16:09;96959.72;;;19.92;69.29
48386;BME280;34644;47.964;7.982;2022-10-31T07:23:14;96966.66;;;19.93;68.90
48386;BME280;34644;47.964;7.982;2022-10-31T07:30:17;96965.28;;;19.95;68.80
48386;BME280;34644;47.964;7.982;2022-10-31T07:37:19;96979.69;;;19.99;68.91
48386;BME280;34644;47.964;7.982;2022-10-31T07:44:20;96976.66;;;20.06;68.60
48386;BME280;34644;47.964;7.982;2022-10-31T07:51:49;96979.25;;;20.16;68.35
48386;BME280;34644;47.964;7.982;2022-10-31T07:59:15;96983.56;;;20.12;68.70
48386;BME280;34644;47.964;7.982;2022-10-31T08:06:16;96986.22;;;20.12;68.67
48386;BME280;34644;47.964;7.982;2022-10-31T08:13:35;96980.88;;;20.12;68.74
48386;BME280;34644;47.964;7.982;2022-10-31T08:20:36;96983.00;;;20.15;68.63
48386;BME280;34644;47.964;7.982;2022-10-31T08:27:36;96977.56;;;20.20;68.67
48386;BME280;34644;47.964;7.982;2022-10-31T08:34:37;96967.97;;;20.19;68.66
48386;BME280;34644;47.964;7.982;2022-10-31T08:41:56;96968.00;;;20.14;68.82
48386;BME280;34644;47.964;7.982;2022-10-31T08:48:56;96962.66;;;20.14;68.81
48386;BME280;34644;47.964;7.982;2022-10-31T08:55:57;96960.50;;;20.16;68.36
48386;BME280;34644;47.964;7.982;2022-10-31T09:03:03;96946.84;;;20.18;68.36
48386;BME280;34644;47.964;7.982;2022-10-31T09:10:06;96932.66;;;20.17;68.45
48386;BME280;34644;47.964;7.982;2022-10-31T09:17:09;96931.56;;;20.18;68.44
48386;BME280;34644;47.964;7.982;2022-10-31T09:24:32;96922.97;;;20.21;68.19
48386;BME280;34644;47.964;7.982;2022-10-31T09:31:33;96921.25;;;20.31;67.87
48386;BME280;34644;47.964;7.982;2022-10-31T09:38:40;96905.78;;;20.28;68.15
48386;BME280;34644;47.964;7.982;2022-10-31T10:00:19;96909.16;;;20.33;68.15
48386;BME280;34644;47.964;7.982;2022-10-31T10:14:42;96905.59;;;20.57;67.67
48386;BME280;34644;47.964;7.982;2022-10-31T10:29:01;96890.50;;;20.47;67.90
48386;BME280;34644;47.964;7.982;2022-10-31T10:36:08;96889.78;;;20.41;67.78
48386;BME280;34644;47.964;7.982;2022-10-31T10:50:49;96880.81;;;20.32;68.21
48386;BME280;34644;47.964;7.982;2022-10-31T11:04:55;96902.50;;;20.31;68.25
48386;BME280;34644;47.964;7.982;2022-10-31T11:11:55;96909.97;;;20.34;68.27
48386;BME280;34644;47.964;7.982;2022-10-31T11:26:18;96891.13;;;20.58;67.49
48386;BME280;34644;47.964;7.982;2022-10-31T11:33:28;96869.22;;;20.56;67.42
48386;BME280;34644;47.964;7.982;2022-10-31T11:40:29;96859.97;;;20.67;67.35
48386;BME280;34644;47.964;7.982;2022-10-31T11:47:29;96835.25;;;21.17;65.92
48386;BME280;34644;47.964;7.982;2022-10-31T11:54:33;96825.72;;;21.11;65.95
48386;BME280;34644;47.964;7.982;2022-10-31T12:01:39;96807.88;;;21.20;65.78
48386;BME280;34644;47.964;7.982;2022-10-31T12:08:39;96793.50;;;21.16;66.22
48386;BME280;34644;47.964;7.982;2022-10-31T12:15:42;96771.25;;;21.29;65.59
48386;BME280;34644;47.964;7.982;2022-10-31T12:23:03;96749.22;;;21.60;64.93
48386;BME280;34644;47.964;7.982;2022-10-31T12:37:26;96721.34;;;21.84;64.12
48386;BME280;34644;47.964;7.982;2022-10-31T12:44:55;96714.75;;;21.90;64.10
48386;BME280;34644;47.964;7.982;2022-10-31T12:59:17;96705.72;;;22.09;63.86
48386;BME280;34644;47.964;7.982;2022-10-31T13:14:05;96682.59;;;22.21;63.24
48386;BME280;34644;47.964;7.982;2022-10-31T13:21:08;96660.66;;;21.97;63.87
48386;BME280;34644;47.964;7.982;2022-10-31T13:28:12;96664.19;;;21.83;64.54
48386;BME280;34644;47.964;7.982;2022-10-31T13:35:34;96664.50;;;21.82;64.70
48386;BME280;34644;47.964;7.982;2022-10-31T13:49:49;96630.63;;;21.95;64.06
48386;BME280;34644;47.964;7.982;2022-10-31T13:56:51;96630.22;;;22.01;63.79
48386;BME280;34644;47.964;7.982;2022-10-31T14:04:07;96624.56;;;22.03;64.10
48386;BME280;34644;47.964;7.982;2022-10-31T14:11:22;96614.91;;;22.02;64.12
48386;BME280;34644;47.964;7.982;2022-10-31T14:18:25;96611.63;;;22.05;63.74
48386;BME280;34644;47.964;7.982;2022-10-31T14:25:33;96596.50;;;21.86;64.62
48386;BME280;34644;47.964;7.982;2022-10-31T14:32:33;96584.75;;;21.74;64.63
48386;BME280;34644;47.964;7.982;2022-10-31T14:53:49;96556.75;;;21.57;65.27
48386;BME280;34644;47.964;7.982;2022-10-31T15:00:51;96556.38;;;21.50;65.33
48386;BME280;34644;47.964;7.982;2022-10-31T15:07:54;96551.59;;;21.47;65.64
48386;BME280;34644;47.964;7.982;2022-10-31T15:14:56;96552.78;;;21.41;65.67
48386;BME280;34644;47.964;7.982;2022-10-31T15:21:57;96567.94;;;21.37;66.04
48386;BME280;34644;47.964;7.982;2022-10-31T15:29:02;96559.50;;;21.29;65.93
48386;BME280;34644;47.964;7.982;2022-10-31T15:36:03;96574.09;;;21.23;66.40
48386;BME280;34644;47.964;7.982;2022-10-31T15:43:04;96563.03;;;21.16;66.57
48386;BME280;34644;47.964;7.982;2022-10-31T15:50:06;96574.66;;;21.11;66.40
48386;BME280;34644;47.964;7.982;2022-10-31T15:57:18;96582.47;;;21.08;66.86
48386;BME280;34644;47.964;7.982;2022-10-31T16:04:22;96573.47;;;21.04;66.94
48386;BME280;34644;47.964;7.982;2022-10-31T16:11:32;96581.13;;;20.96;66.87
48386;BME280;34644;47.964;7.982;2022-10-31T16:18:34;96590.06;;;20.92;67.24
48386;BME280;34644;47.964;7.982;2022-10-31T16:25:37;96592.06;;;20.86;67.49
48386;BME280;34644;47.964;7.982;2022-10-31T16:32:51;96622.91;;;20.84;67.53
48386;BME280;34644;47.964;7.982;2022-10-31T16:39:53;96630.28;;;20.78;67.59
48386;BME280;34644;47.964;7.982;2022-10-31T16:47:27;96615.59;;;20.75;67.70
48386;BME280;34644;47.964;7.982;2022-10-31T16:54:20;96647.03;;;20.70;67.66
48386;BME280;34644;47.964;7.982;2022-10-31T17:01:20;96639.09;;;20.65;68.05
48386;BME280;34644;47.964;7.982;2022-10-31T17:08:21;96653.56;;;20.64;67.96
48386;BME280;34644;47.964;7.982;2022-10-31T17:15:23;96652.56;;;20.59;68.09
48386;BME280;34644;47.964;7.982;2022-10-31T17:22:24;96657.41;;;20.57;67.88
48386;BME280;34644;47.964;7.982;2022-10-31T17:29:24;96669.81;;;20.53;68.07
48386;BME280;34644;47.964;7.982;2022-10-31T17:36:25;96681.59;;;20.52;68.05
48386;BME280;34644;47.964;7.982;2022-10-31T17:43:25;96668.00;;;20.49;68.12
48386;BME280;34644;47.964;7.982;2022-10-31T17:50:26;96699.34;;;20.48;68.27
48386;BME280;34644;47.964;7.982;2022-10-31T17:57:31;96692.97;;;20.44;68.54
48386;BME280;34644;47.964;7.982;2022-10-31T18:04:31;96712.31;;;20.41;68.57
48386;BME280;34644;47.964;7.982;2022-10-31T18:11:31;96704.56;;;20.39;68.64
48386;BME280;34644;47.964;7.982;2022-10-31T18:18:32;96680.28;;;20.36;68.45
48386;BME280;34644;47.964;7.982;2022-10-31T18:25:32;96691.00;;;20.36;68.69
48386;BME280;34644;47.964;7.982;2022-10-31T18:32:32;96696.63;;;20.34;68.67
48386;BME280;34644;47.964;7.982;2022-10-31T18:39:33;96702.56;;;20.31;68.40
48386;BME280;34644;47.964;7.982;2022-10-31T18:46:34;96694.84;;;20.30;68.74
48386;BME280;34644;47.964;7.982;2022-10-31T18:53:35;96688.19;;;20.27;68.76
48386;BME280;34644;47.964;7.982;2022-10-31T19:00:35;96672.13;;;20.27;68.50
48386;BME280;34644;47.964;7.982;2022-10-31T19:07:36;96657.47;;;20.24;68.63
48386;BME280;34644;47.964;7.982;2022-10-31T19:14:36;96647.84;;;20.23;68.70
48386;BME280;34644;47.964;7.982;2022-10-31T19:21:36;96635.53;;;20.22;68.65
48386;BME280;34644;47.964;7.982;2022-10-31T19:28:37;96640.41;;;20.20;68.63
48386;BME280;34644;47.964;7.982;2022-10-31T19:35:38;96645.75;;;20.20;68.52
48386;BME280;34644;47.964;7.982;2022-10-31T19:42:38;96653.28;;;20.18;68.75
48386;BME280;34644;47.964;7.982;2022-10-31T19:49:38;96643.66;;;20.17;68.54
48386;BME280;34644;47.964;7.982;2022-10-31T19:56:38;96654.97;;;20.14;68.92
48386;BME280;34644;47.964;7.982;2022-10-31T20:03:39;96648.53;;;20.15;68.60
48386;BME280;34644;47.964;7.982;2022-10-31T20:10:42;96649.13;;;20.12;68.76
48386;BME280;34644;47.964;7.982;2022-10-31T20:17:52;96645.94;;;20.10;68.78
48386;BME280;34644;47.964;7.982;2022-10-31T20:24:54;96645.44;;;20.08;68.94
48386;BME280;34644;47.964;7.982;2022-10-31T20:31:54;96635.84;;;20.07;68.71
48386;BME280;34644;47.964;7.982;2022-10-31T20:38:56;96648.69;;;20.05;68.74
48386;BME280;34644;47.964;7.982;2022-10-31T20:53:05;96655.16;;;20.04;68.75
48386;BME280;34644;47.964;7.982;2022-10-31T21:00:06;96650.88;;;20.03;68.58
48386;BME280;34644;47.964;7.982;2022-10-31T21:07:06;96643.13;;;20.01;68.81
48386;BME280;34644;47.964;7.982;2022-10-31T21:14:07;96643.44;;;20.00;68.72
48386;BME280;34644;47.964;7.982;2022-10-31T21:21:08;96652.56;;;19.99;68.81
48386;BME280;34644;47.964;7.982;2022-10-31T21:28:10;96652.56;;;19.99;68.96
48386;BME280;34644;47.964;7.982;2022-10-31T21:35:10;96642.94;;;19.98;68.68
48386;BME280;34644;47.964;7.982;2022-10-31T21:42:11;96641.63;;;19.95;68.99
48386;BME280;34644;47.964;7.982;2022-10-31T21:49:11;96638.19;;;19.95;68.93
48386;BME280;34644;47.964;7.982;2022-10-31T21:56:11;96645.41;;;19.94;68.87
48386;BME280;34644;47.964;7.982;2022-10-31T22:03:12;96648.38;;;19.93;68.97
48386;BME280;34644;47.964;7.982;2022-10-31T22:10:12;96644.88;;;19.92;68.71
48386;BME280;34644;47.964;7.982;2022-10-31T22:17:12;96644.09;;;19.92;68.87
48386;BME280;34644;47.964;7.982;2022-10-31T22:24:13;96648.16;;;19.89;68.75
48386;BME280;34644;47.964;7.982;2022-10-31T22:31:17;96645.75;;;19.87;68.73
48386;BME280;34644;47.964;7.982;2022-10-31T22:38:17;96641.53;;;19.86;68.76
48386;BME280;34644;47.964;7.982;2022-10-31T22:45:18;96638.84;;;19.86;68.90
48386;BME280;34644;47.964;7.982;2022-10-31T22:52:18;96632.69;;;19.86;68.76
48386;BME280;34644;47.964;7.982;2022-10-31T22:59:18;96626.56;;;19.85;68.72
48386;BME280;34644;47.964;7.982;2022-10-31T23:06:20;96616.94;;;19.84;68.79
48386;BME280;34644;47.964;7.982;2022-10-31T23:13:20;96612.97;;;19.82;68.68
48386;BME280;34644;47.964;7.982;2022-10-31T23:20:39;96612.16;;;19.81;68.72
48386;BME280;34644;47.964;7.982;2022-10-31T23:27:40;96612.97;;;19.82;68.72
48386;BME280;34644;47.964;7.982;2022-10-31T23:34:40;96615.94;;;19.80;68.76
48386;BME280;34644;47.964;7.982;2022-10-31T23:41:40;96615.94;;;19.80;68.85
48386;BME280;34644;47.964;7.982;2022-10-31T23:48:41;96613.28;;;19.80;68.64
48386;BME280;34644;47.964;7.982;2022-10-31T23:55:41;96600.50;;;19.77;68.69
